createdAt,value
2017-09-01T00:02:24.118Z,5.60
2017-09-01T00:04:51.902Z,6.50
2017-09-01T00:07:19.667Z,5.70
2017-09-01T00:09:47.476Z,4.77
2017-09-01T00:12:15.257Z,5.27
2017-09-01T00:14:43.036Z,5.47
2017-09-01T00:17:10.919Z,5.30
2017-09-01T00:19:38.660Z,5.23
2017-09-01T00:22:06.471Z,6.00
2017-09-01T00:24:34.294Z,5.60
2017-09-01T00:27:02.094Z,5.27
2017-09-01T00:29:29.896Z,5.77
2017-09-01T00:31:57.796Z,5.43
2017-09-01T00:34:25.572Z,5.27
2017-09-01T00:36:53.346Z,4.23
2017-09-01T00:39:21.173Z,5.13
2017-09-01T00:41:49.757Z,5.23
2017-09-01T00:44:17.533Z,5.70
2017-09-01T00:46:45.295Z,5.63
2017-09-01T00:49:13.076Z,6.10
2017-09-01T00:51:40.800Z,4.90
2017-09-01T00:54:08.521Z,5.73
2017-09-01T00:56:36.302Z,5.35
2017-09-01T00:59:04.099Z,4.97
2017-09-01T01:01:31.863Z,5.53
2017-09-01T01:03:59.623Z,5.57
2017-09-01T01:06:27.450Z,5.80
2017-09-01T01:08:55.312Z,4.97
2017-09-01T01:11:23.098Z,4.90
2017-09-01T01:13:50.819Z,5.80
2017-09-01T01:16:18.606Z,4.70
2017-09-01T01:18:46.380Z,5.03
2017-09-01T01:21:14.153Z,5.43
2017-09-01T01:23:41.965Z,4.97
2017-09-01T01:26:09.745Z,5.67
2017-09-01T01:28:37.464Z,6.07
2017-09-01T01:31:05.273Z,5.90
2017-09-01T01:33:33.085Z,6.37
2017-09-01T01:36:00.824Z,5.50
2017-09-01T01:38:28.657Z,5.63
2017-09-01T01:40:56.384Z,5.40
2017-09-01T01:43:24.107Z,6.40
2017-09-01T01:45:51.839Z,5.67
2017-09-01T01:48:19.642Z,6.67
2017-09-01T01:50:47.360Z,5.73
2017-09-01T01:53:15.212Z,6.93
2017-09-01T01:55:42.943Z,6.80
2017-09-01T01:58:10.688Z,6.77
2017-09-01T02:00:38.479Z,6.97
2017-09-01T02:03:06.251Z,7.13
2017-09-01T02:05:34.031Z,6.97
2017-09-01T02:08:01.822Z,7.80
2017-09-01T02:10:29.559Z,7.70
2017-09-01T02:12:57.340Z,7.40
2017-09-01T02:15:25.073Z,7.80
2017-09-01T02:17:52.789Z,9.00
2017-09-01T02:20:20.521Z,8.27
2017-09-01T02:22:48.307Z,9.63
2017-09-01T02:25:16.075Z,9.30
2017-09-01T02:27:43.787Z,8.83
2017-09-01T02:30:11.520Z,8.70
2017-09-01T02:32:39.240Z,8.27
2017-09-01T02:35:07.069Z,6.73
2017-09-01T02:37:34.901Z,6.80
2017-09-01T02:40:02.611Z,6.20
2017-09-01T02:42:30.340Z,6.20
2017-09-01T02:44:58.208Z,5.67
2017-09-01T02:47:25.933Z,5.60
2017-09-01T02:49:53.724Z,4.70
2017-09-01T02:52:21.543Z,5.63
2017-09-01T02:54:49.262Z,5.70
2017-09-01T02:57:17.014Z,5.67
2017-09-01T02:59:44.825Z,4.93
2017-09-01T03:02:12.705Z,4.87
2017-09-01T03:04:40.494Z,5.03
2017-09-01T03:07:08.313Z,5.20
2017-09-01T03:09:36.040Z,4.80
2017-09-01T03:12:03.820Z,4.90
2017-09-01T03:14:31.585Z,4.43
2017-09-01T03:16:59.298Z,4.07
2017-09-01T03:19:27.059Z,4.10
2017-09-01T03:21:54.789Z,4.53
2017-09-01T03:24:22.574Z,3.77
2017-09-01T03:26:50.301Z,4.40
2017-09-01T03:29:18.875Z,3.37
2017-09-01T03:31:46.579Z,3.93
2017-09-01T03:34:14.308Z,4.30
2017-09-01T03:36:42.099Z,4.30
2017-09-01T03:39:09.817Z,3.77
2017-09-01T03:41:37.622Z,3.27
2017-09-01T03:44:05.492Z,3.30
2017-09-01T03:46:33.276Z,2.80
2017-09-01T03:49:00.990Z,3.40
2017-09-01T03:51:28.795Z,3.00
2017-09-01T03:53:56.554Z,2.80
2017-09-01T03:56:24.269Z,2.93
2017-09-01T03:58:52.052Z,2.40
2017-09-01T04:01:19.827Z,1.90
2017-09-01T04:03:47.543Z,2.27
2017-09-01T04:06:15.339Z,1.87
2017-09-01T04:08:43.103Z,1.97
2017-09-01T04:11:10.890Z,1.83
2017-09-01T04:13:38.678Z,2.00
2017-09-01T04:16:06.396Z,2.10
2017-09-01T04:18:34.102Z,2.27
2017-09-01T04:21:01.848Z,2.20
2017-09-01T04:23:29.625Z,2.57
2017-09-01T04:25:57.330Z,2.27
2017-09-01T04:28:25.112Z,2.63
2017-09-01T04:30:52.828Z,1.93
2017-09-01T04:33:20.552Z,2.00
2017-09-01T04:35:48.353Z,2.03
2017-09-01T04:38:16.159Z,2.10
2017-09-01T04:40:43.932Z,2.30
2017-09-01T04:43:11.683Z,2.20
2017-09-01T04:45:39.443Z,2.87
2017-09-01T04:48:07.157Z,2.50
2017-09-01T04:50:34.976Z,2.07
2017-09-01T04:53:02.748Z,2.50
2017-09-01T04:55:30.489Z,2.80
2017-09-01T04:57:58.318Z,2.20
2017-09-01T05:00:26.035Z,2.97
2017-09-01T05:02:53.757Z,2.50
2017-09-01T05:05:21.591Z,2.53
2017-09-01T05:07:49.390Z,2.40
2017-09-01T05:10:17.122Z,3.17
2017-09-01T05:12:45.008Z,4.20
2017-09-01T05:15:12.785Z,3.80
2017-09-01T05:17:40.524Z,4.00
2017-09-01T05:20:08.393Z,5.00
2017-09-01T05:22:36.193Z,5.87
2017-09-01T05:25:03.944Z,4.30
2017-09-01T05:27:31.724Z,4.60
2017-09-01T05:29:59.550Z,3.70
2017-09-01T05:32:27.263Z,4.10
2017-09-01T05:34:55.043Z,3.80
2017-09-01T05:37:22.971Z,4.43
2017-09-01T05:39:50.730Z,4.33
2017-09-01T05:42:18.545Z,4.40
2017-09-01T05:44:46.249Z,4.27
2017-09-01T05:47:14.067Z,5.00
2017-09-01T05:49:41.909Z,4.33
2017-09-01T05:52:09.634Z,4.67
2017-09-01T05:54:37.400Z,5.53
2017-09-01T05:57:05.217Z,6.53
2017-09-01T05:59:33.000Z,6.67
2017-09-01T06:02:00.711Z,6.90
2017-09-01T06:04:28.502Z,7.60
2017-09-01T06:06:56.281Z,8.10
2017-09-01T06:09:24.020Z,7.00
2017-09-01T06:11:51.772Z,6.07
2017-09-01T06:14:19.571Z,5.60
2017-09-01T06:16:47.347Z,6.27
2017-09-01T06:19:15.151Z,6.33
2017-09-01T06:21:42.850Z,6.20
2017-09-01T06:24:10.624Z,6.97
2017-09-01T06:26:38.415Z,6.87
2017-09-01T06:29:06.124Z,7.20
2017-09-01T06:31:33.912Z,7.50
2017-09-01T06:34:01.622Z,6.67
2017-09-01T06:36:29.336Z,6.93
2017-09-01T06:38:57.137Z,6.67
2017-09-01T06:41:25.003Z,6.63
2017-09-01T06:43:52.730Z,6.10
2017-09-01T06:46:20.454Z,5.67
2017-09-01T06:48:48.694Z,5.40
2017-09-01T06:51:16.427Z,5.23
2017-09-01T06:53:44.208Z,5.37
2017-09-01T06:56:12.101Z,5.77
2017-09-01T06:58:40.026Z,4.70
2017-09-01T07:01:09.327Z,5.20
2017-09-01T07:03:38.027Z,4.40
2017-09-01T07:06:06.042Z,4.20
2017-09-01T07:08:34.066Z,4.63
2017-09-01T07:11:03.291Z,4.37
2017-09-01T07:13:32.549Z,8.20
2017-09-01T07:16:01.566Z,5.00
2017-09-01T07:18:29.705Z,4.43
2017-09-01T07:20:58.069Z,5.20
2017-09-01T07:23:26.064Z,5.03
2017-09-01T07:25:53.871Z,4.70
2017-09-01T07:28:21.584Z,7.37
2017-09-01T07:30:50.382Z,6.27
2017-09-01T07:33:18.160Z,6.10
2017-09-01T07:35:45.902Z,6.37
2017-09-01T07:38:13.644Z,4.90
2017-09-01T07:40:41.364Z,4.90
2017-09-01T07:43:09.160Z,4.90
2017-09-01T07:45:36.980Z,5.53
2017-09-01T07:48:04.747Z,5.20
2017-09-01T07:50:33.117Z,5.53
2017-09-01T07:53:01.686Z,4.83
2017-09-01T07:55:29.812Z,5.00
2017-09-01T07:57:57.536Z,4.90
2017-09-01T08:00:25.378Z,4.93
2017-09-01T08:02:53.107Z,4.60
2017-09-01T08:05:20.881Z,4.23
2017-09-01T08:07:48.744Z,3.67
2017-09-01T08:10:16.515Z,3.27
2017-09-01T08:12:44.243Z,3.00
2017-09-01T08:15:12.035Z,3.90
2017-09-01T08:17:39.764Z,3.83
2017-09-01T08:20:07.467Z,3.60
2017-09-01T08:22:36.013Z,5.60
2017-09-01T08:25:03.785Z,4.73
2017-09-01T08:27:31.555Z,5.03
2017-09-01T08:29:59.413Z,4.60
2017-09-01T08:32:27.600Z,4.50
2017-09-01T08:34:55.371Z,4.83
2017-09-01T08:37:23.100Z,4.93
2017-09-01T08:39:50.811Z,4.53
2017-09-01T08:42:18.558Z,5.37
2017-09-01T08:44:46.311Z,4.70
2017-09-01T08:47:14.085Z,4.93
2017-09-01T08:49:41.803Z,4.57
2017-09-01T08:52:09.528Z,5.90
2017-09-01T08:54:37.252Z,4.60
2017-09-01T08:57:05.027Z,3.83
2017-09-01T08:59:32.860Z,4.20
2017-09-01T09:02:00.576Z,3.53
2017-09-01T09:04:28.351Z,4.00
2017-09-01T09:06:56.071Z,3.93
2017-09-01T09:09:23.779Z,4.37
2017-09-01T09:11:51.548Z,4.30
2017-09-01T09:14:19.270Z,4.00
2017-09-01T09:16:46.994Z,3.87
2017-09-01T09:19:14.765Z,4.00
2017-09-01T09:21:42.508Z,4.13
2017-09-01T09:24:10.291Z,3.10
2017-09-01T09:26:38.018Z,3.57
2017-09-01T09:29:05.808Z,3.60
2017-09-01T09:31:33.599Z,3.13
2017-09-01T09:34:01.405Z,3.93
2017-09-01T09:36:29.229Z,2.70
2017-09-01T09:38:57.001Z,3.20
2017-09-01T09:41:24.774Z,2.60
2017-09-01T09:43:52.649Z,2.53
2017-09-01T09:46:20.420Z,2.77
2017-09-01T09:48:48.194Z,3.27
2017-09-01T09:51:16.000Z,2.73
2017-09-01T09:53:43.711Z,3.20
2017-09-01T09:56:11.476Z,2.83
2017-09-01T09:58:39.266Z,3.10
2017-09-01T10:01:07.041Z,2.80
2017-09-01T10:03:34.980Z,2.73
2017-09-01T10:06:02.884Z,2.87
2017-09-01T10:08:30.599Z,3.67
2017-09-01T10:10:58.306Z,2.60
2017-09-01T10:13:26.176Z,3.00
2017-09-01T10:15:53.961Z,2.70
2017-09-01T10:18:21.742Z,2.50
2017-09-01T10:20:50.232Z,2.73
2017-09-01T10:23:18.023Z,2.30
2017-09-01T10:25:45.740Z,2.70
2017-09-01T10:28:13.630Z,2.70
2017-09-01T10:30:41.352Z,3.07
2017-09-01T10:33:09.134Z,2.33
2017-09-01T10:35:36.945Z,2.70
2017-09-01T10:38:04.659Z,2.10
2017-09-01T10:40:32.377Z,2.70
2017-09-01T10:43:00.250Z,2.33
2017-09-01T10:45:27.969Z,2.23
2017-09-01T10:48:07.639Z,3.13
2017-09-01T11:04:04.590Z,2.43
2017-09-01T11:06:32.382Z,2.40
2017-09-01T11:09:00.160Z,2.57
2017-09-01T11:11:27.945Z,2.00
2017-09-01T11:13:55.675Z,2.10
2017-09-01T11:16:23.438Z,2.20
2017-09-01T11:18:56.892Z,2.33
2017-09-01T11:21:30.213Z,2.77
2017-09-01T11:24:03.512Z,2.23
2017-09-01T11:26:31.240Z,2.20
2017-09-01T11:28:59.023Z,2.00
2017-09-01T11:31:26.843Z,2.40
2017-09-01T11:33:54.568Z,2.10
2017-09-01T11:36:22.280Z,2.10
2017-09-01T11:38:50.096Z,2.57
2017-09-01T11:41:17.816Z,2.10
2017-09-01T11:43:45.530Z,2.00
2017-09-01T11:46:13.260Z,2.10
2017-09-01T11:48:40.990Z,2.30
2017-09-01T11:51:08.715Z,2.40
2017-09-01T11:53:36.460Z,2.60
2017-09-01T11:56:04.345Z,3.20
2017-09-01T11:58:32.050Z,2.00
2017-09-01T12:00:59.800Z,2.13
2017-09-01T12:03:27.515Z,1.83
2017-09-01T12:05:55.293Z,1.63
2017-09-01T12:08:23.024Z,2.07
2017-09-01T12:10:50.803Z,2.00
2017-09-01T12:13:18.644Z,2.37
2017-09-01T12:15:46.508Z,1.80
2017-09-01T12:18:14.219Z,1.97
2017-09-01T12:20:42.011Z,2.57
2017-09-01T12:23:09.760Z,2.10
2017-09-01T12:25:38.535Z,2.63
2017-09-01T12:28:06.354Z,2.27
2017-09-01T12:30:34.157Z,2.63
2017-09-01T12:35:36.329Z,1.90
2017-09-01T12:38:04.085Z,1.70
2017-09-01T12:54:04.945Z,2.47
2017-09-01T12:56:32.761Z,2.13
2017-09-01T12:59:00.682Z,2.00
2017-09-01T13:01:28.494Z,2.27
2017-09-01T13:03:58.482Z,1.77
2017-09-01T13:06:26.341Z,2.03
2017-09-01T13:24:34.782Z,1.97
2017-09-01T13:27:02.570Z,1.77
2017-09-01T13:29:30.298Z,1.80
2017-09-01T13:31:58.075Z,2.13
2017-09-01T13:34:25.867Z,1.27
2017-09-01T13:36:53.662Z,1.80
2017-09-01T13:39:28.824Z,1.37
2017-09-01T13:41:56.669Z,1.70
2017-09-01T13:44:24.633Z,1.67
2017-09-01T13:46:52.412Z,1.20
2017-09-01T13:49:20.221Z,1.40
2017-09-01T13:51:48.061Z,1.80
2017-09-01T13:54:15.800Z,1.70
2017-09-01T13:56:43.567Z,2.03
2017-09-01T13:59:11.321Z,1.50
2017-09-01T14:01:39.114Z,2.00
2017-09-01T14:04:06.842Z,1.20
2017-09-01T14:06:34.667Z,1.30
2017-09-01T14:09:02.407Z,1.50
2017-09-01T14:11:30.176Z,1.40
2017-09-01T14:13:57.897Z,1.90
2017-09-01T14:16:25.660Z,1.30
2017-09-01T14:18:53.478Z,1.90
2017-09-01T14:21:21.392Z,1.03
2017-09-01T14:23:49.136Z,1.43
2017-09-01T14:26:16.851Z,1.30
2017-09-01T14:28:44.658Z,1.50
2017-09-01T14:31:12.384Z,1.30
2017-09-01T14:33:40.132Z,1.57
2017-09-01T14:36:08.005Z,1.37
2017-09-01T14:38:35.776Z,1.50
2017-09-01T14:41:03.489Z,1.30
2017-09-01T14:43:31.208Z,1.27
2017-09-01T14:45:58.923Z,1.10
2017-09-01T14:48:26.683Z,1.00
2017-09-01T14:50:54.473Z,1.07
2017-09-01T14:53:22.193Z,1.87
2017-09-01T14:55:49.911Z,1.20
2017-09-01T14:58:17.729Z,1.03
2017-09-01T15:00:45.445Z,1.03
2017-09-01T15:03:13.233Z,1.37
2017-09-01T15:05:40.969Z,1.10
2017-09-01T15:08:08.716Z,1.43
2017-09-01T15:10:36.502Z,1.20
2017-09-01T15:13:04.449Z,1.03
2017-09-01T15:15:32.238Z,1.10
2017-09-01T15:17:59.984Z,1.13
2017-09-01T15:20:27.779Z,1.23
2017-09-01T15:22:55.562Z,1.23
2017-09-01T15:25:23.324Z,1.43
2017-09-01T15:27:51.087Z,1.13
2017-09-01T15:30:18.860Z,1.30
2017-09-01T15:32:46.623Z,0.93
2017-09-01T15:35:14.438Z,1.20
2017-09-01T15:37:42.212Z,1.30
2017-09-01T15:40:09.924Z,1.50
2017-09-01T15:42:37.782Z,1.60
2017-09-01T15:45:05.493Z,1.27
2017-09-01T15:47:33.212Z,1.23
2017-09-01T15:50:01.013Z,1.20
2017-09-01T15:52:28.766Z,1.10
2017-09-01T15:54:56.475Z,1.40
2017-09-01T15:57:24.297Z,1.13
2017-09-01T15:59:52.014Z,1.17
2017-09-01T16:02:19.732Z,1.40
2017-09-01T16:04:47.556Z,1.00
2017-09-01T16:07:15.346Z,1.23
2017-09-01T16:09:43.112Z,1.20
2017-09-01T16:12:10.880Z,1.13
2017-09-01T16:14:38.605Z,1.10
2017-09-01T16:17:06.320Z,1.60
2017-09-01T16:19:34.064Z,1.10
2017-09-01T16:22:01.846Z,1.50
2017-09-01T16:24:29.622Z,1.00
2017-09-01T16:26:57.493Z,1.40
2017-09-01T16:29:25.294Z,1.70
2017-09-01T16:31:53.062Z,1.27
2017-09-01T16:34:20.843Z,1.70
2017-09-01T16:36:48.663Z,1.10
2017-09-01T16:39:16.437Z,1.30
2017-09-01T16:41:44.239Z,1.83
2017-09-01T16:44:11.975Z,1.80
2017-09-01T16:46:39.694Z,1.50
2017-09-01T16:49:07.471Z,1.50
2017-09-01T16:51:35.205Z,1.10
2017-09-01T16:54:02.926Z,1.63
2017-09-01T16:56:30.754Z,1.60
2017-09-01T16:58:58.497Z,1.40
2017-09-01T17:01:26.225Z,1.33
2017-09-01T17:03:54.066Z,1.10
2017-09-01T17:06:21.796Z,1.47
2017-09-01T17:08:49.600Z,1.33
2017-09-01T17:11:17.534Z,1.23
2017-09-01T17:13:45.248Z,1.20
2017-09-01T17:16:15.622Z,1.77
2017-09-01T17:18:43.447Z,1.87
2017-09-01T17:21:11.232Z,1.40
2017-09-01T17:23:39.060Z,1.63
2017-09-01T17:26:06.844Z,1.87
2017-09-01T17:28:34.631Z,1.80
2017-09-01T17:31:02.710Z,1.60
2017-09-01T17:33:31.101Z,1.40
2017-09-01T17:35:59.866Z,1.63
2017-09-01T17:38:27.677Z,1.97
2017-09-01T17:40:55.905Z,1.67
2017-09-01T17:43:23.771Z,1.37
2017-09-01T17:45:51.530Z,1.70
2017-09-01T17:48:19.283Z,2.00
2017-09-01T17:50:47.012Z,2.10
2017-09-01T17:53:14.951Z,2.17
2017-09-01T17:55:42.815Z,1.43
2017-09-01T17:58:10.675Z,2.23
2017-09-01T18:00:38.405Z,1.63
2017-09-01T18:03:06.294Z,1.90
2017-09-01T18:05:34.076Z,1.90
2017-09-01T18:08:01.858Z,1.77
2017-09-01T18:10:30.450Z,2.00
2017-09-01T18:12:59.125Z,2.23
2017-09-01T18:15:26.905Z,2.60
2017-09-01T18:17:54.721Z,1.70
2017-09-01T18:20:22.504Z,2.20
2017-09-01T18:22:50.268Z,2.30
2017-09-01T18:25:17.976Z,1.70
2017-09-01T18:27:45.795Z,1.67
2017-09-01T18:30:14.128Z,1.70
2017-09-01T18:32:41.908Z,1.60
2017-09-01T18:35:09.773Z,1.80
2017-09-01T18:37:37.561Z,1.73
2017-09-01T18:40:05.365Z,2.30
2017-09-01T18:42:33.097Z,1.83
2017-09-01T18:45:00.839Z,1.63
2017-09-01T18:47:28.569Z,1.30
2017-09-01T18:49:56.466Z,1.70
2017-09-01T18:52:25.046Z,1.53
2017-09-01T18:54:52.856Z,2.00
2017-09-01T18:57:20.708Z,2.17
2017-09-01T18:59:48.475Z,1.80
2017-09-01T19:02:17.366Z,1.73
2017-09-01T19:04:45.184Z,1.73
2017-09-01T19:07:12.959Z,2.30
2017-09-01T19:09:40.794Z,2.00
2017-09-01T19:12:08.580Z,2.00
2017-09-01T19:14:36.401Z,1.60
2017-09-01T19:17:04.300Z,2.00
2017-09-01T19:19:32.196Z,2.20
2017-09-01T19:22:00.007Z,2.07
2017-09-01T19:24:27.799Z,1.53
2017-09-01T19:26:55.540Z,1.60
2017-09-01T19:29:23.328Z,1.60
2017-09-01T19:31:51.266Z,2.20
2017-09-01T19:34:19.005Z,1.80
2017-09-01T19:36:46.802Z,1.30
2017-09-01T19:39:15.452Z,1.80
2017-09-01T19:41:43.212Z,2.20
2017-09-01T19:44:10.991Z,1.83
2017-09-01T19:46:38.838Z,2.00
2017-09-01T19:49:06.555Z,1.37
2017-09-01T19:51:34.345Z,2.07
2017-09-01T19:54:02.135Z,1.70
2017-09-01T19:56:29.906Z,2.10
2017-09-01T19:58:57.690Z,1.93
2017-09-01T20:01:25.618Z,2.10
2017-09-01T20:03:53.413Z,1.80
2017-09-01T20:06:21.177Z,2.10
2017-09-01T20:08:48.942Z,2.10
2017-09-01T20:11:16.652Z,2.63
2017-09-01T20:13:46.225Z,2.30
2017-09-01T20:16:15.404Z,2.60
2017-09-01T20:18:43.513Z,1.83
2017-09-01T20:21:11.231Z,2.47
2017-09-01T20:23:39.014Z,2.30
2017-09-01T20:26:06.748Z,2.30
2017-09-01T20:28:34.470Z,2.10
2017-09-01T20:31:02.230Z,2.13
2017-09-01T20:33:30.028Z,2.30
2017-09-01T20:35:57.783Z,2.93
2017-09-01T20:38:25.496Z,2.00
2017-09-01T20:40:53.371Z,2.03
2017-09-01T20:43:21.344Z,2.67
2017-09-01T20:45:49.170Z,2.63
2017-09-01T20:48:16.894Z,2.57
2017-09-01T20:50:44.747Z,2.30
2017-09-01T20:53:12.578Z,2.03
2017-09-01T20:55:40.350Z,2.63
2017-09-01T20:58:08.067Z,3.07
2017-09-01T21:00:36.623Z,3.10
2017-09-01T21:03:04.580Z,4.53
2017-09-01T21:05:32.629Z,2.80
2017-09-01T21:08:00.457Z,2.03
2017-09-01T21:10:29.318Z,2.30
2017-09-01T21:12:57.044Z,2.40
2017-09-01T21:15:24.766Z,2.03
2017-09-01T21:17:52.608Z,2.03
2017-09-01T21:20:20.320Z,2.73
2017-09-01T21:22:48.094Z,2.57
2017-09-01T21:25:15.862Z,2.17
2017-09-01T21:27:43.649Z,4.30
2017-09-01T21:30:11.394Z,3.80
2017-09-01T21:32:39.136Z,2.80
2017-09-01T21:35:06.905Z,3.10
2017-09-01T21:37:34.711Z,3.23
2017-09-01T21:40:02.570Z,2.63
2017-09-01T21:42:30.284Z,2.43
2017-09-01T21:44:58.070Z,2.97
2017-09-01T21:47:25.843Z,3.00
2017-09-01T21:49:53.612Z,2.80
2017-09-01T21:52:21.397Z,2.87
2017-09-01T21:54:49.208Z,2.77
2017-09-01T21:57:16.964Z,3.70
2017-09-01T21:59:44.696Z,2.80
2017-09-01T22:02:12.485Z,3.10
2017-09-01T22:04:40.262Z,3.00
2017-09-01T22:07:08.050Z,3.37
2017-09-01T22:09:35.777Z,2.80
2017-09-01T22:12:03.543Z,2.63
2017-09-01T22:14:31.259Z,2.97
2017-09-01T22:16:59.009Z,2.97
2017-09-01T22:19:26.728Z,3.33
2017-09-01T22:21:54.458Z,3.30
2017-09-01T22:24:22.184Z,3.30
2017-09-01T22:26:49.958Z,3.23
2017-09-01T22:29:17.753Z,3.47
2017-09-01T22:31:45.547Z,2.80
2017-09-01T22:34:13.291Z,3.57
2017-09-01T22:36:41.008Z,3.23
2017-09-01T22:39:10.241Z,3.10
2017-09-01T22:41:37.961Z,3.10
2017-09-01T22:44:05.756Z,3.10
2017-09-01T22:46:33.725Z,2.80
2017-09-01T22:49:01.496Z,3.10
2017-09-01T22:51:29.260Z,2.73
2017-09-01T22:53:57.074Z,3.60
2017-09-01T22:56:24.936Z,3.67
2017-09-01T22:58:52.671Z,3.60
2017-09-01T23:01:20.485Z,3.10
2017-09-01T23:03:48.256Z,3.63
2017-09-01T23:06:16.056Z,4.00
2017-09-01T23:08:43.860Z,3.90
2017-09-01T23:11:11.638Z,3.10
2017-09-01T23:13:39.425Z,3.00
2017-09-01T23:16:07.144Z,3.43
2017-09-01T23:18:34.870Z,3.23
2017-09-01T23:21:02.639Z,3.90
2017-09-01T23:23:30.469Z,4.77
2017-09-01T23:25:58.253Z,3.97
2017-09-01T23:28:26.019Z,4.40
2017-09-01T23:30:53.880Z,3.93
2017-09-01T23:33:21.671Z,3.87
2017-09-01T23:35:49.390Z,4.00
2017-09-01T23:38:17.107Z,4.10
2017-09-01T23:40:44.875Z,3.13
2017-09-01T23:43:12.824Z,2.50
2017-09-01T23:45:40.769Z,3.20
2017-09-01T23:48:08.476Z,2.93
2017-09-01T23:50:36.190Z,2.90
2017-09-01T23:53:04.077Z,2.60
2017-09-01T23:55:31.792Z,2.97
2017-09-01T23:57:59.580Z,2.93
